Time;durP1;ratioP1;P1;durP2;ratioP2;P2;SDS_P1;SDS_P2;PMS_P1;PMS_P2;Temp;Humidity;BMP_temperature;BMP_pressure;BME280_temperature;BME280_humidity;BME280_pressure;Samples;Min_cycle;Max_cycle;Signal;HPM_P1;HPM_P2
2022/07/23 00:03:13;;;;;;;4.60;4.15;;;28.30;65.10;;;;;;10091492;28;20028;-51
2022/07/23 00:08:05;;;;;;;7.50;4.80;;;28.10;65.60;;;;;;10089204;28;20664;-53
2022/07/23 00:12:55;;;;;;;7.20;3.88;;;28.20;65.60;;;;;;10088003;28;20095;-52
2022/07/23 00:17:46;;;;;;;7.43;4.55;;;28.20;65.70;;;;;;10091281;28;20029;-50
2022/07/23 00:22:36;;;;;;;4.97;4.18;;;28.20;65.90;;;;;;10059726;28;20041;-50
2022/07/23 00:27:27;;;;;;;8.75;5.60;;;28.10;66.00;;;;;;10063415;28;20021;-58
2022/07/23 00:32:18;;;;;;;4.90;4.40;;;28.10;66.10;;;;;;10095938;28;20545;-51
2022/07/23 00:37:08;;;;;;;5.68;4.38;;;28.00;66.40;;;;;;10058107;28;20018;-55
2022/07/23 00:41:59;;;;;;;6.47;5.05;;;27.90;66.60;;;;;;10068905;28;20033;-50
2022/07/23 00:46:53;;;;;;;6.47;4.22;;;27.90;66.70;;;;;;10076823;28;20525;-54
2022/07/23 00:51:44;;;;;;;6.38;5.00;;;27.90;66.90;;;;;;10094289;28;20024;-59
2022/07/23 00:56:34;;;;;;;7.78;4.88;;;27.70;67.50;;;;;;10096210;28;20036;-59
2022/07/23 01:01:25;;;;;;;6.65;4.45;;;27.60;68.40;;;;;;10094791;28;20108;-51
2022/07/23 01:06:16;;;;;;;7.45;4.45;;;27.50;69.10;;;;;;10076683;28;20055;-53
2022/07/23 01:11:07;;;;;;;5.18;4.30;;;27.40;69.90;;;;;;10086595;28;20021;-50
2022/07/23 01:15:58;;;;;;;6.85;4.97;;;27.20;70.20;;;;;;10093453;28;20029;-52
2022/07/23 01:20:49;;;;;;;5.03;4.43;;;27.20;70.00;;;;;;10094544;28;20128;-53
2022/07/23 01:25:48;;;;;;;6.50;4.00;;;27.10;69.80;;;;;;10094333;28;20103;-69
2022/07/23 01:30:39;;;;;;;6.97;4.40;;;26.90;69.10;;;;;;10094083;28;20017;-54
2022/07/23 01:35:30;;;;;;;3.95;3.50;;;26.90;68.60;;;;;;10086203;28;20021;-59
2022/07/23 01:40:20;;;;;;;4.45;3.15;;;26.90;67.70;;;;;;10084194;28;20459;-54
2022/07/23 01:45:11;;;;;;;5.07;3.53;;;26.80;67.60;;;;;;10088462;28;20049;-54
2022/07/23 01:50:02;;;;;;;3.65;2.53;;;26.70;66.70;;;;;;10084264;28;20083;-50
2022/07/23 01:54:53;;;;;;;4.10;2.70;;;26.80;66.40;;;;;;10087880;28;20040;-50
2022/07/23 01:59:43;;;;;;;2.85;2.38;;;26.60;66.30;;;;;;10092313;28;20585;-49
2022/07/23 02:04:37;;;;;;;3.55;3.22;;;26.90;65.70;;;;;;10081201;28;20244;-53
2022/07/23 02:09:28;;;;;;;5.43;2.97;;;26.80;65.30;;;;;;10092067;28;20017;-63
2022/07/23 02:14:19;;;;;;;5.80;3.35;;;26.80;65.20;;;;;;10089430;28;20036;-57
2022/07/23 02:19:09;;;;;;;3.58;3.05;;;26.80;65.00;;;;;;10092113;28;20028;-52
2022/07/23 02:24:00;;;;;;;4.63;2.90;;;26.70;64.90;;;;;;10092564;28;20037;-59
2022/07/23 02:28:52;;;;;;;4.03;2.80;;;26.70;64.80;;;;;;10093855;28;20033;-56
2022/07/23 02:33:43;;;;;;;4.68;3.00;;;26.50;64.80;;;;;;10089770;28;20037;-51
2022/07/23 02:38:34;;;;;;;3.83;2.80;;;26.50;64.70;;;;;;10092203;28;20509;-53
2022/07/23 02:43:24;;;;;;;4.38;3.40;;;26.70;64.80;;;;;;10092385;28;20036;-60
2022/07/23 02:48:15;;;;;;;5.53;3.95;;;26.90;64.70;;;;;;10083157;28;20045;-53
2022/07/23 02:53:05;;;;;;;5.57;4.15;;;26.70;65.50;;;;;;10100244;28;20040;-53
2022/07/23 02:57:56;;;;;;;4.53;4.03;;;26.50;66.60;;;;;;10095588;28;20031;-54
2022/07/23 03:02:47;;;;;;;7.47;5.07;;;26.50;67.60;;;;;;10095316;28;20037;-53
2022/07/23 03:07:37;;;;;;;6.60;4.18;;;26.50;68.00;;;;;;10089209;28;20032;-56
2022/07/23 03:12:28;;;;;;;7.30;3.95;;;26.50;68.90;;;;;;10088901;28;20032;-54
2022/07/23 03:17:19;;;;;;;6.18;4.43;;;26.50;69.10;;;;;;10087777;28;20029;-54
2022/07/23 03:22:09;;;;;;;5.10;3.65;;;26.40;69.80;;;;;;10099577;28;20418;-67
2022/07/23 03:27:00;;;;;;;6.80;3.60;;;26.40;69.70;;;;;;10101784;28;20033;-66
2022/07/23 03:31:50;;;;;;;4.60;3.08;;;26.30;69.70;;;;;;10099585;28;20040;-78
2022/07/23 03:36:41;;;;;;;6.10;4.53;;;26.50;69.20;;;;;;10090171;28;20028;-54
2022/07/23 03:41:32;;;;;;;7.53;4.45;;;26.70;68.70;;;;;;10098014;28;20033;-53
2022/07/23 03:46:22;;;;;;;6.63;4.53;;;26.70;69.00;;;;;;10081556;28;20052;-54
2022/07/23 03:51:13;;;;;;;5.13;4.15;;;26.50;69.80;;;;;;10096883;28;20070;-56
2022/07/23 03:56:04;;;;;;;7.38;4.75;;;26.50;70.30;;;;;;10091810;28;20048;-54
2022/07/23 04:00:54;;;;;;;6.43;5.15;;;26.50;70.90;;;;;;10072730;28;20120;-53
2022/07/23 04:05:45;;;;;;;7.65;4.90;;;26.50;71.40;;;;;;10061863;28;20041;-56
2022/07/23 04:10:36;;;;;;;7.28;5.45;;;26.60;71.90;;;;;;10062616;28;20021;-53
2022/07/23 04:15:26;;;;;;;6.43;5.72;;;26.50;72.40;;;;;;10084301;28;20041;-52
2022/07/23 04:20:17;;;;;;;6.72;5.03;;;26.60;72.70;;;;;;10090280;28;20029;-58
2022/07/23 04:25:08;;;;;;;6.88;4.90;;;26.60;73.00;;;;;;10095684;28;20086;-50
2022/07/23 04:29:59;;;;;;;6.65;4.78;;;26.60;73.30;;;;;;10060122;28;20411;-53
2022/07/23 04:34:50;;;;;;;6.65;4.82;;;26.60;73.60;;;;;;10072682;28;20430;-52
2022/07/23 04:39:40;;;;;;;8.10;4.85;;;26.50;74.00;;;;;;10095738;28;20059;-51
2022/07/23 04:44:31;;;;;;;7.70;5.07;;;26.30;74.30;;;;;;10088039;28;20041;-62
2022/07/23 04:49:21;;;;;;;5.22;3.85;;;26.20;74.70;;;;;;10082090;28;20411;-52
2022/07/23 04:54:12;;;;;;;8.82;4.93;;;26.20;74.70;;;;;;10094386;28;20032;-53
2022/07/23 04:59:03;;;;;;;5.68;4.65;;;26.20;74.60;;;;;;10093833;28;20037;-54
2022/07/23 05:03:53;;;;;;;7.45;4.88;;;26.10;75.30;;;;;;10087150;28;20048;-53
2022/07/23 05:08:44;;;;;;;6.07;4.43;;;25.90;76.00;;;;;;10086636;28;20021;-50
2022/07/23 05:13:34;;;;;;;7.80;5.13;;;25.80;76.50;;;;;;10083918;28;20060;-53
2022/07/23 05:18:25;;;;;;;6.40;4.88;;;25.60;77.40;;;;;;10089471;28;20143;-53
2022/07/23 05:23:16;;;;;;;8.15;5.40;;;25.30;78.80;;;;;;10078352;28;20144;-57
2022/07/23 05:28:06;;;;;;;9.65;5.50;;;25.10;79.90;;;;;;10054087;28;20044;-53
2022/07/23 05:32:57;;;;;;;8.35;5.78;;;24.70;81.50;;;;;;10060970;28;20083;-53
2022/07/23 05:37:47;;;;;;;7.63;5.68;;;24.70;82.70;;;;;;10092624;28;20021;-57
2022/07/23 05:42:39;;;;;;;7.63;5.60;;;25.00;83.80;;;;;;10091896;28;20308;-54
2022/07/23 05:47:44;;;;;;;6.70;4.95;;;25.10;84.90;;;;;;10072441;28;20051;-51
2022/07/23 05:52:35;;;;;;;4.72;4.22;;;25.20;86.80;;;;;;10094339;28;20092;-51
2022/07/23 05:57:26;;;;;;;7.30;5.07;;;25.40;87.40;;;;;;10089872;28;20470;-54
2022/07/23 06:02:16;;;;;;;6.45;4.53;;;25.60;88.50;;;;;;10094034;28;20041;-57
2022/07/23 06:07:07;;;;;;;8.57;5.47;;;25.60;88.90;;;;;;10094534;28;20025;-59
2022/07/23 06:11:57;;;;;;;7.47;5.47;;;25.70;89.50;;;;;;10086350;28;20744;-69
2022/07/23 06:16:48;;;;;;;7.07;5.20;;;25.70;90.20;;;;;;10067139;28;20029;-63
2022/07/23 06:21:39;;;;;;;7.22;5.32;;;25.70;90.60;;;;;;10089932;28;20100;-70
2022/07/23 06:26:29;;;;;;;8.57;6.20;;;25.60;91.10;;;;;;10102421;28;20479;-61
2022/07/23 06:31:20;;;;;;;9.55;5.50;;;25.20;91.70;;;;;;10105280;28;20036;-76
2022/07/23 06:36:11;;;;;;;8.02;5.30;;;24.80;92.10;;;;;;10092416;28;20020;-69
2022/07/23 06:41:01;;;;;;;6.38;4.72;;;24.40;92.80;;;;;;10101936;28;20037;-51
2022/07/23 06:45:52;;;;;;;7.72;6.10;;;24.40;93.60;;;;;;10101565;28;20045;-51
2022/07/23 06:50:43;;;;;;;10.70;5.47;;;24.60;94.10;;;;;;10101339;28;20136;-67
2022/07/23 06:55:38;;;;;;;7.88;5.18;;;24.90;94.40;;;;;;10093353;28;20485;-60
2022/07/23 07:00:30;;;;;;;6.72;5.25;;;25.10;95.00;;;;;;10089059;28;20032;-68
2022/07/23 07:05:21;;;;;;;9.40;5.50;;;25.40;95.70;;;;;;10101073;28;20416;-62
2022/07/23 07:10:11;;;;;;;10.23;6.95;;;25.60;95.90;;;;;;10098896;28;20027;-56
2022/07/23 07:15:02;;;;;;;9.45;6.30;;;25.80;96.10;;;;;;10089250;28;20395;-66
2022/07/23 07:19:53;;;;;;;9.48;5.32;;;25.80;96.40;;;;;;10100901;28;20029;-65
2022/07/23 07:24:44;;;;;;;7.53;5.72;;;25.80;96.50;;;;;;10090998;28;20033;-53
2022/07/23 07:29:34;;;;;;;7.28;5.93;;;25.90;96.50;;;;;;10099514;28;20025;-51
2022/07/23 07:34:25;;;;;;;10.00;6.65;;;25.80;96.60;;;;;;10090035;28;20047;-63
2022/07/23 07:39:15;;;;;;;10.05;5.32;;;26.10;96.70;;;;;;10099518;28;20099;-75
2022/07/23 07:44:06;;;;;;;8.48;6.32;;;26.10;96.60;;;;;;10097405;28;20025;-71
2022/07/23 07:48:57;;;;;;;9.02;5.82;;;26.00;96.80;;;;;;10081297;28;20041;-62
2022/07/23 07:53:47;;;;;;;7.70;5.90;;;26.20;96.90;;;;;;10086490;28;20075;-58
2022/07/23 07:58:38;;;;;;;9.43;6.38;;;26.40;96.70;;;;;;10098755;28;20456;-55
2022/07/23 08:03:29;;;;;;;8.35;7.00;;;26.60;96.60;;;;;;10085649;28;20028;-68
2022/07/23 08:08:20;;;;;;;9.50;7.15;;;26.90;96.50;;;;;;10093116;28;20035;-65
2022/07/23 08:13:15;;;;;;;8.85;6.43;;;26.90;96.50;;;;;;10091229;28;20025;-74
2022/07/23 08:18:05;;;;;;;8.45;6.43;;;27.00;96.40;;;;;;10089574;28;20396;-72
2022/07/23 08:23:04;;;;;;;6.93;5.55;;;27.00;96.30;;;;;;10087994;28;20118;-68
2022/07/23 08:27:56;;;;;;;7.75;5.60;;;27.00;96.00;;;;;;10096153;28;20483;-60
2022/07/23 08:33:03;;;;;;;9.85;5.40;;;27.00;95.80;;;;;;10096820;28;20059;-66
2022/07/23 08:37:54;;;;;;;8.02;5.68;;;26.90;95.90;;;;;;10076176;28;20040;-71
2022/07/23 08:42:48;;;;;;;8.52;6.00;;;27.00;95.70;;;;;;10096214;28;20025;-74
2022/07/23 08:47:39;;;;;;;7.73;6.57;;;27.00;95.60;;;;;;10087656;28;20064;-70
2022/07/23 08:52:30;;;;;;;7.97;5.82;;;26.90;95.50;;;;;;10097383;28;20298;-70
2022/07/23 08:57:21;;;;;;;8.82;6.13;;;27.10;95.20;;;;;;10095985;28;20063;-73
2022/07/23 09:02:12;;;;;;;10.20;7.43;;;27.40;95.00;;;;;;10064852;28;20056;-57
2022/07/23 09:07:03;;;;;;;8.15;6.60;;;27.40;94.90;;;;;;10067993;28;20127;-60
2022/07/23 09:12:08;;;;;;;9.80;6.70;;;27.60;94.70;;;;;;10081977;28;20405;-61
2022/07/23 09:17:12;;;;;;;7.78;5.53;;;27.70;94.60;;;;;;10087154;28;20039;-58
2022/07/23 09:22:19;;;;;;;10.20;5.97;;;27.60;94.00;;;;;;10062131;28;20234;-54
2022/07/23 09:27:09;;;;;;;6.85;5.93;;;27.90;93.80;;;;;;10058922;28;20045;-55
2022/07/23 09:32:05;;;;;;;8.63;6.68;;;28.10;93.70;;;;;;10094009;28;20629;-58
2022/07/23 09:36:58;;;;;;;7.50;6.05;;;28.30;93.50;;;;;;10074651;28;20457;-54
2022/07/23 09:41:48;;;;;;;8.70;7.05;;;28.30;93.40;;;;;;10084891;28;20039;-54
2022/07/23 09:46:40;;;;;;;6.53;5.30;;;28.50;93.20;;;;;;10080096;28;20156;-53
2022/07/23 09:56:23;;;;;;;7.80;5.82;;;28.80;92.80;;;;;;10092908;28;20371;-54
2022/07/23 10:01:14;;;;;;;7.45;6.10;;;29.10;92.40;;;;;;10094901;28;20033;-55
2022/07/23 10:06:05;;;;;;;6.80;5.35;;;29.30;92.10;;;;;;10092337;28;20090;-54
2022/07/23 10:10:56;;;;;;;6.90;5.18;;;29.40;91.90;;;;;;10092260;28;20083;-68
2022/07/23 10:15:47;;;;;;;9.32;5.43;;;29.40;91.70;;;;;;10088008;28;20037;-77
2022/07/23 10:20:39;;;;;;;5.82;4.90;;;29.60;91.40;;;;;;10094750;28;20025;-54
2022/07/23 10:26:00;;;;;;;8.05;5.93;;;29.70;90.90;;;;;;10086092;28;20032;-60
2022/07/23 10:31:17;;;;;;;8.88;5.78;;;29.50;90.70;;;;;;10093581;28;20195;-53
2022/07/23 10:36:21;;;;;;;6.30;5.70;;;29.50;90.50;;;;;;10082135;28;20025;-62
2022/07/23 10:41:12;;;;;;;7.85;5.57;;;29.70;90.20;;;;;;10094144;28;20033;-63
2022/07/23 10:46:29;;;;;;;4.82;4.30;;;29.90;89.90;;;;;;10093195;28;20049;-71
2022/07/23 10:51:19;;;;;;;6.40;4.75;;;29.60;87.70;;;;;;10081330;28;20036;-73
2022/07/23 10:56:14;;;;;;;7.82;4.80;;;29.40;87.60;;;;;;10094222;28;20496;-54
2022/07/23 11:01:32;;;;;;;6.13;4.53;;;29.50;85.90;;;;;;10085624;28;20036;-53
2022/07/23 11:06:22;;;;;;;5.10;4.60;;;29.60;84.40;;;;;;10083923;28;20085;-53
2022/07/23 11:11:13;;;;;;;7.80;4.88;;;29.70;83.80;;;;;;10097775;28;20107;-57
2022/07/23 11:16:06;;;;;;;6.15;5.30;;;30.00;82.70;;;;;;10097179;28;20025;-54
2022/07/23 11:20:57;;;;;;;5.93;5.05;;;30.10;81.70;;;;;;10102799;28;20036;-52
2022/07/23 11:25:47;;;;;;;5.65;4.50;;;30.20;81.00;;;;;;10099087;28;20450;-54
2022/07/23 11:30:41;;;;;;;6.75;5.20;;;30.00;81.00;;;;;;10099903;28;20029;-76
2022/07/23 11:35:31;;;;;;;8.70;5.18;;;30.00;80.30;;;;;;10086727;28;20051;-64
2022/07/23 11:40:22;;;;;;;5.20;4.43;;;30.20;80.10;;;;;;10087690;28;20506;-74
2022/07/23 11:45:13;;;;;;;6.15;4.45;;;30.20;79.10;;;;;;10093515;28;20045;-74
2022/07/23 11:50:06;;;;;;;7.00;4.05;;;30.30;78.40;;;;;;10088375;28;20059;-74
2022/07/23 11:55:06;;;;;;;7.00;5.10;;;30.10;77.90;;;;;;10098731;28;20102;-54
2022/07/23 12:00:21;;;;;;;6.75;4.75;;;30.10;77.10;;;;;;10099587;28;20549;-53
2022/07/23 12:05:14;;;;;;;6.20;4.55;;;30.20;76.40;;;;;;10092519;28;20060;-52
2022/07/23 12:10:11;;;;;;;5.60;4.35;;;30.40;75.60;;;;;;10090199;28;20012;-53
2022/07/23 12:15:02;;;;;;;6.43;4.82;;;30.70;74.90;;;;;;10091406;28;20029;-55
2022/07/23 12:19:54;;;;;;;6.28;5.68;;;31.00;74.50;;;;;;10093882;28;20029;-58
2022/07/23 12:25:00;;;;;;;5.97;4.35;;;31.20;73.80;;;;;;10096692;28;20382;-54
2022/07/23 12:29:51;;;;;;;5.53;4.57;;;31.00;73.10;;;;;;10091681;28;20039;-54
2022/07/23 12:34:42;;;;;;;5.25;4.68;;;31.30;73.70;;;;;;10090536;28;20498;-50
2022/07/23 12:39:33;;;;;;;5.75;4.15;;;31.10;72.20;;;;;;10096343;28;20032;-55
2022/07/23 12:44:23;;;;;;;6.53;5.20;;;30.90;72.20;;;;;;10094705;28;20044;-55
2022/07/23 12:49:26;;;;;;;5.03;4.50;;;31.00;71.60;;;;;;10075072;28;20022;-54
2022/07/23 12:54:16;;;;;;;4.80;4.00;;;31.50;70.90;;;;;;10095600;28;20035;-54
2022/07/23 12:59:16;;;;;;;5.20;4.70;;;31.80;70.20;;;;;;10097938;28;20685;-54
2022/07/23 13:04:10;;;;;;;6.10;4.25;;;32.30;69.50;;;;;;10082400;28;20072;-53
2022/07/23 13:09:02;;;;;;;5.07;4.57;;;32.50;68.40;;;;;;10092124;28;20337;-55
2022/07/23 13:13:53;;;;;;;5.68;4.93;;;32.40;67.80;;;;;;10083754;28;20034;-70
2022/07/23 13:18:44;;;;;;;5.35;4.63;;;33.10;66.80;;;;;;10101089;28;20565;-74
2022/07/23 13:23:35;;;;;;;4.68;4.20;;;34.00;65.40;;;;;;10095525;28;20029;-56
2022/07/23 13:28:26;;;;;;;4.82;4.43;;;35.70;63.70;;;;;;10081712;28;20025;-52
2022/07/23 13:33:19;;;;;;;4.55;4.15;;;36.90;61.80;;;;;;10088327;28;20025;-54
2022/07/23 13:38:09;;;;;;;5.25;4.05;;;36.50;60.60;;;;;;10091048;28;20031;-55
2022/07/23 13:43:01;;;;;;;5.85;4.35;;;35.10;61.10;;;;;;10089902;28;20156;-61
2022/07/23 13:47:51;;;;;;;6.50;4.65;;;34.20;61.90;;;;;;10127803;22;20040;-57
2022/07/23 13:52:43;;;;;;;5.38;4.78;;;34.20;60.50;;;;;;10129341;28;20033;-54
2022/07/23 13:57:33;;;;;;;6.25;5.03;;;33.40;60.70;;;;;;10132934;28;20075;-59
2022/07/23 14:02:24;;;;;;;6.70;4.97;;;33.80;59.70;;;;;;10131302;28;20511;-58
2022/07/23 14:07:16;;;;;;;5.10;4.60;;;33.10;59.80;;;;;;10131243;28;20012;-57
2022/07/23 14:12:07;;;;;;;4.72;4.22;;;33.40;59.20;;;;;;10133193;28;20056;-57
2022/07/23 14:16:58;;;;;;;5.95;4.65;;;33.30;59.10;;;;;;10127892;28;20075;-53
2022/07/23 14:21:49;;;;;;;5.70;5.00;;;36.40;56.90;;;;;;10134937;28;20431;-53
2022/07/23 14:26:40;;;;;;;6.80;4.73;;;37.60;55.20;;;;;;10133921;28;20016;-57
2022/07/23 14:31:30;;;;;;;5.43;4.90;;;35.20;56.10;;;;;;10120819;28;20024;-50
2022/07/23 14:36:21;;;;;;;5.03;4.53;;;37.10;55.10;;;;;;10126813;28;20098;-54
2022/07/23 14:41:11;;;;;;;6.10;5.13;;;36.40;54.30;;;;;;10128030;28;20044;-55
2022/07/23 14:46:02;;;;;;;5.50;4.85;;;34.80;55.80;;;;;;10126426;28;20146;-52
2022/07/23 14:50:53;;;;;;;7.65;5.70;;;34.20;55.50;;;;;;10139072;28;20865;-55
2022/07/23 14:55:43;;;;;;;5.78;4.80;;;33.60;55.90;;;;;;10139323;28;20144;-64
2022/07/23 15:00:34;;;;;;;5.97;5.38;;;33.50;56.20;;;;;;10136126;28;20028;-52
2022/07/23 15:05:25;;;;;;;6.03;4.60;;;33.80;55.50;;;;;;10133823;28;20040;-53
2022/07/23 15:10:16;;;;;;;5.40;4.40;;;33.90;55.50;;;;;;10131319;28;20059;-59
2022/07/23 15:15:07;;;;;;;6.85;4.88;;;33.60;55.70;;;;;;10132872;28;20052;-53
2022/07/23 15:19:58;;;;;;;5.43;4.93;;;33.20;56.10;;;;;;10138168;28;20036;-58
2022/07/23 15:24:48;;;;;;;5.88;5.38;;;32.70;56.50;;;;;;10131981;28;20082;-57
2022/07/23 15:29:39;;;;;;;7.28;5.15;;;32.50;56.60;;;;;;10138192;28;20036;-53
2022/07/23 15:34:30;;;;;;;8.13;5.15;;;32.70;56.30;;;;;;10137643;28;20017;-59
2022/07/23 15:39:21;;;;;;;5.60;4.78;;;33.80;55.00;;;;;;10138368;28;20042;-54
2022/07/23 15:44:12;;;;;;;5.00;4.28;;;34.20;54.70;;;;;;10133707;28;20025;-54
2022/07/23 15:49:03;;;;;;;6.53;4.50;;;34.70;53.90;;;;;;10128217;28;20070;-56
2022/07/23 15:53:54;;;;;;;5.30;4.70;;;35.30;53.40;;;;;;10136036;28;20032;-54
2022/07/23 15:58:44;;;;;;;6.07;4.57;;;37.10;51.80;;;;;;10130654;28;20028;-55
2022/07/23 16:03:35;;;;;;;4.77;4.27;;;37.00;51.90;;;;;;10131797;28;20029;-54
2022/07/23 16:08:26;;;;;;;4.63;4.10;;;37.00;51.90;;;;;;10137226;28;20464;-57
2022/07/23 16:13:17;;;;;;;6.83;4.60;;;36.20;51.70;;;;;;10131802;28;20123;-57
2022/07/23 16:18:08;;;;;;;4.63;4.20;;;36.20;51.70;;;;;;10135759;28;20028;-61
2022/07/23 16:22:59;;;;;;;5.20;4.73;;;35.20;52.20;;;;;;10130981;28;20060;-52
2022/07/23 16:27:50;;;;;;;6.18;4.50;;;33.80;53.60;;;;;;10135709;28;20028;-58
2022/07/23 16:32:40;;;;;;;5.32;4.60;;;32.90;54.50;;;;;;10135991;28;20126;-56
2022/07/23 16:37:31;;;;;;;7.38;4.78;;;32.40;55.00;;;;;;10129345;28;20117;-55
2022/07/23 16:42:22;;;;;;;5.55;4.22;;;34.90;53.20;;;;;;10134882;28;20032;-57
2022/07/23 16:47:12;;;;;;;6.88;4.63;;;35.00;52.60;;;;;;10125062;28;20040;-55
2022/07/23 16:52:06;;;;;;;6.32;4.38;;;36.00;52.40;;;;;;10124764;28;20029;-58
2022/07/23 16:56:57;;;;;;;6.45;5.00;;;37.70;50.30;;;;;;10133608;28;20171;-62
2022/07/23 17:01:48;;;;;;;7.18;4.25;;;37.70;50.10;;;;;;10134066;28;20529;-58
2022/07/23 17:06:39;;;;;;;9.45;4.72;;;38.00;49.20;;;;;;10130623;28;20031;-55
2022/07/23 17:11:30;;;;;;;8.25;4.82;;;38.10;48.90;;;;;;10133604;28;20017;-61
2022/07/23 17:16:20;;;;;;;4.80;4.33;;;38.40;49.00;;;;;;10133166;28;20078;-61
2022/07/23 17:21:11;;;;;;;9.60;4.57;;;38.30;48.20;;;;;;10133286;28;20049;-57
2022/07/23 17:26:02;;;;;;;8.35;5.05;;;38.30;48.00;;;;;;10133747;28;20028;-57
2022/07/23 17:30:53;;;;;;;5.18;4.68;;;37.70;48.30;;;;;;10133865;28;20612;-57
2022/07/23 17:35:43;;;;;;;5.40;4.13;;;37.00;48.50;;;;;;10131885;28;20118;-59
2022/07/23 17:40:34;;;;;;;4.95;4.45;;;36.80;48.90;;;;;;10133177;28;20028;-57
2022/07/23 17:45:25;;;;;;;7.93;5.20;;;37.60;48.00;;;;;;10123822;28;20420;-58
2022/07/23 17:50:16;;;;;;;6.13;4.53;;;37.00;48.20;;;;;;10132118;28;20503;-55
2022/07/23 17:55:07;;;;;;;8.40;5.18;;;35.60;49.00;;;;;;10133667;28;20023;-55
2022/07/23 17:59:57;;;;;;;7.13;4.55;;;34.20;51.10;;;;;;10131648;28;20119;-57
2022/07/23 18:04:48;;;;;;;8.13;5.55;;;33.20;52.50;;;;;;10127930;28;20333;-55
2022/07/23 18:09:39;;;;;;;6.75;5.10;;;32.40;52.80;;;;;;10128555;28;20040;-58
2022/07/23 18:14:29;;;;;;;7.05;5.07;;;32.20;53.10;;;;;;10131741;28;20024;-51
2022/07/23 18:19:20;;;;;;;9.90;6.00;;;31.60;53.60;;;;;;10126609;28;20048;-58
2022/07/23 18:24:11;;;;;;;6.55;4.72;;;31.20;53.90;;;;;;10132291;28;20058;-60
2022/07/23 18:29:01;;;;;;;7.22;5.25;;;31.10;54.40;;;;;;10132944;28;20046;-56
2022/07/23 18:33:52;;;;;;;6.78;4.63;;;31.10;54.40;;;;;;10129842;28;20620;-60
2022/07/23 18:38:43;;;;;;;7.80;4.93;;;31.00;54.60;;;;;;10132916;28;20017;-64
2022/07/23 18:43:35;;;;;;;8.63;5.22;;;30.80;55.00;;;;;;10131462;28;20141;-55
2022/07/23 18:48:26;;;;;;;6.32;4.55;;;30.50;55.60;;;;;;10122701;28;20045;-58
2022/07/23 18:53:16;;;;;;;7.60;5.43;;;30.30;55.80;;;;;;10132189;28;20048;-64
2022/07/23 18:58:07;;;;;;;6.00;5.22;;;30.20;56.00;;;;;;10125227;28;20059;-55
2022/07/23 19:02:58;;;;;;;8.05;5.03;;;30.20;56.40;;;;;;10122256;28;20032;-63
2022/07/23 19:07:49;;;;;;;6.50;4.53;;;30.20;56.40;;;;;;10122519;28;20043;-58
2022/07/23 19:12:40;;;;;;;6.97;5.05;;;30.00;56.50;;;;;;10126605;28;20046;-58
2022/07/23 19:17:30;;;;;;;6.85;4.78;;;29.90;56.90;;;;;;10128675;28;20047;-56
2022/07/23 19:22:21;;;;;;;9.60;4.90;;;29.80;57.00;;;;;;10129918;28;20075;-54
2022/07/23 19:27:12;;;;;;;7.32;5.05;;;29.60;57.10;;;;;;10131042;28;20028;-58
2022/07/23 19:32:04;;;;;;;7.28;5.05;;;29.50;57.10;;;;;;10135905;28;20044;-53
2022/07/23 19:36:55;;;;;;;8.35;5.30;;;29.40;57.30;;;;;;10129676;28;20035;-58
2022/07/23 19:41:46;;;;;;;11.13;5.35;;;29.30;57.40;;;;;;10133928;28;20043;-60
2022/07/23 19:46:36;;;;;;;5.82;4.75;;;29.40;57.30;;;;;;10137313;28;20060;-54
2022/07/23 19:51:27;;;;;;;6.47;4.85;;;29.30;57.40;;;;;;10132190;28;20096;-59
2022/07/23 19:56:20;;;;;;;7.68;5.70;;;29.20;58.40;;;;;;10137879;28;20078;-52
2022/07/23 20:01:11;;;;;;;6.97;5.93;;;29.10;58.00;;;;;;10137206;28;20041;-53
2022/07/23 20:06:01;;;;;;;7.78;5.90;;;29.20;58.00;;;;;;10123471;28;20115;-53
2022/07/23 20:10:52;;;;;;;10.13;5.57;;;29.00;58.20;;;;;;10136999;28;20021;-63
2022/07/23 20:15:43;;;;;;;8.60;5.43;;;29.00;58.40;;;;;;10138196;28;20086;-57
2022/07/23 20:20:34;;;;;;;10.30;5.78;;;29.10;58.40;;;;;;10137343;28;20055;-55
2022/07/23 20:25:24;;;;;;;9.25;6.25;;;29.00;58.60;;;;;;10133797;28;20321;-57
2022/07/23 20:30:15;;;;;;;11.02;5.32;;;28.80;58.90;;;;;;10136228;28;20188;-59
2022/07/23 20:35:06;;;;;;;7.35;5.53;;;28.90;59.00;;;;;;10135328;28;20143;-56
2022/07/23 20:39:56;;;;;;;7.70;5.68;;;28.90;59.10;;;;;;10131401;28;20024;-55
2022/07/23 20:44:48;;;;;;;7.95;4.97;;;28.80;59.20;;;;;;10135255;28;20037;-58
2022/07/23 20:49:38;;;;;;;7.43;6.10;;;28.60;59.30;;;;;;10135382;28;20566;-65
2022/07/23 20:54:29;;;;;;;12.07;6.82;;;28.50;59.50;;;;;;10135278;28;20120;-57
2022/07/23 20:59:20;;;;;;;7.40;4.93;;;28.50;59.50;;;;;;10134413;28;20075;-57
2022/07/23 21:04:10;;;;;;;8.90;5.00;;;28.40;59.70;;;;;;10131773;28;20036;-57
2022/07/23 21:09:01;;;;;;;7.28;4.90;;;28.50;59.20;;;;;;10130778;28;20032;-55
2022/07/23 21:13:52;;;;;;;7.63;5.40;;;28.50;59.90;;;;;;10132803;28;20041;-54
2022/07/23 21:18:43;;;;;;;7.63;5.95;;;28.30;60.30;;;;;;10129340;28;20081;-57
2022/07/23 21:23:41;;;;;;;9.13;5.82;;;28.20;60.70;;;;;;10132872;28;20032;-55
2022/07/23 21:28:31;;;;;;;8.20;5.40;;;28.10;61.10;;;;;;10133737;28;20028;-55
2022/07/23 21:33:22;;;;;;;8.23;5.78;;;27.90;61.50;;;;;;10132893;28;20039;-52
2022/07/23 21:38:13;;;;;;;7.53;5.53;;;27.80;61.90;;;;;;10133279;28;20021;-56
2022/07/23 21:43:04;;;;;;;6.50;5.15;;;27.60;62.30;;;;;;10132442;28;20051;-56
2022/07/23 21:47:54;;;;;;;8.70;5.93;;;27.60;62.50;;;;;;10131052;28;20550;-53
2022/07/23 21:52:46;;;;;;;8.18;5.50;;;27.60;62.60;;;;;;10131825;28;20029;-59
2022/07/23 21:57:36;;;;;;;8.23;5.60;;;27.60;62.80;;;;;;10131324;28;20033;-59
2022/07/23 22:02:27;;;;;;;6.50;5.28;;;27.40;63.30;;;;;;10129719;28;20037;-56
2022/07/23 22:07:18;;;;;;;9.18;5.75;;;27.40;63.50;;;;;;10128522;28;20025;-52
2022/07/23 22:12:09;;;;;;;6.43;5.18;;;27.40;63.60;;;;;;10130579;28;20035;-54
2022/07/23 22:16:59;;;;;;;7.82;5.20;;;27.20;64.00;;;;;;10131384;28;20430;-61
2022/07/23 22:21:50;;;;;;;9.43;5.80;;;27.20;64.40;;;;;;10132254;28;20021;-57
2022/07/23 22:26:42;;;;;;;6.60;4.85;;;27.00;64.50;;;;;;10132076;28;20516;-57
2022/07/23 22:31:33;;;;;;;6.25;4.78;;;27.00;64.90;;;;;;10131158;28;20032;-55
2022/07/23 22:36:23;;;;;;;7.18;5.60;;;27.00;65.00;;;;;;10131508;28;20380;-53
2022/07/23 22:41:14;;;;;;;5.15;4.45;;;27.00;65.00;;;;;;10131297;28;20394;-57
2022/07/23 22:46:05;;;;;;;7.32;5.00;;;27.10;65.00;;;;;;10127783;28;20132;-59
2022/07/23 22:50:55;;;;;;;6.30;4.88;;;27.10;65.10;;;;;;10131450;28;20112;-56
2022/07/23 22:55:46;;;;;;;8.35;5.35;;;27.00;65.50;;;;;;10131577;28;20029;-56
2022/07/23 23:00:37;;;;;;;6.72;4.53;;;26.80;65.70;;;;;;10131475;28;20074;-56
2022/07/23 23:05:28;;;;;;;6.30;5.05;;;26.70;66.10;;;;;;10131515;28;20036;-54
2022/07/23 23:10:19;;;;;;;6.72;4.80;;;26.60;66.50;;;;;;10138088;28;20592;-50
2022/07/23 23:15:10;;;;;;;7.82;5.20;;;26.50;67.00;;;;;;10136439;28;20059;-52
2022/07/23 23:20:01;;;;;;;7.38;4.63;;;26.40;67.20;;;;;;10139192;28;20547;-54
2022/07/23 23:24:51;;;;;;;7.72;4.90;;;26.40;67.30;;;;;;10136738;28;20040;-53
2022/07/23 23:29:42;;;;;;;9.77;4.93;;;26.40;67.50;;;;;;10138455;28;20099;-57
2022/07/23 23:34:33;;;;;;;6.20;4.97;;;26.30;67.60;;;;;;10135523;28;20078;-59
2022/07/23 23:39:23;;;;;;;6.03;4.90;;;26.30;67.80;;;;;;10132503;28;20032;-55
2022/07/23 23:44:16;;;;;;;6.63;4.75;;;26.20;68.00;;;;;;10134334;28;20033;-56
2022/07/23 23:49:07;;;;;;;5.68;4.70;;;26.20;68.20;;;;;;10132626;28;20560;-54
2022/07/23 23:53:57;;;;;;;6.57;5.30;;;26.30;68.10;;;;;;10134098;28;20031;-64
2022/07/23 23:58:48;;;;;;;5.95;5.05;;;26.30;68.20;;;;;;10137123;28;20462;-56
